<?xml version="1.0" encoding="UTF-8" standalone="no" ?>
<gpx xmlns="http://www.topografix.com/GPX/1/1" xmlns:xsi="http://www.w3.org/2001/XMLSchema-instance" xsi:schemaLocation="http://www.topografix.com/GPX/1/1 http://www.topografix.com/GPX/1/1/gpx.xsd" version="1.1" creator="VisuGPX - https://www.visugpx.com">
  <metadata>
    <name>2024 05 22 Parcours Total 2024</name>
  </metadata>
  <trk>
    <name><![CDATA[VTT14 B2]]></name>
    <extensions>
      <line xmlns="http://www.topografix.com/GPX/gpx_style/0/2">
        <color>ff000d</color>
        <width>5</width>
      </line>
    </extensions>
    <trkseg>
      <trkpt lat="48.19908" lon="3.25699">
        <ele>168.4</ele>
        <time>2020-02-08T11:07:53Z</time>
        <extensions>
          <visugpx:TrkExtension xmlns:visugpx="https://www.visugpx.com/editgpx/">
            <visugpx:node>1</visugpx:node>
            </visugpx:TrkExtension>
        </extensions>
      </trkpt>
      <trkpt lat="48.1991" lon="3.25694">
        <ele>168.2</ele>
        <time>2020-02-08T11:07:45Z</time>
      </trkpt>
      <trkpt lat="48.19913" lon="3.25689">
        <ele>168</ele>
        <time>2020-02-08T11:07:40Z</time>
      </trkpt>
      <trkpt lat="48.19915" lon="3.25685">
        <ele>167.7</ele>
        <time>2020-02-08T11:07:33Z</time>
      </trkpt>
      <trkpt lat="48.19915" lon="3.25682">
        <ele>167.6</ele>
        <time>2020-02-08T11:07:27Z</time>
      </trkpt>
      <trkpt lat="48.19917" lon="3.25681">
        <ele>167.5</ele>
        <time>2020-02-08T11:07:18Z</time>
      </trkpt>
      <trkpt lat="48.19922" lon="3.2568">
        <ele>167.1</ele>
        <time>2020-02-08T11:07:12Z</time>
      </trkpt>
      <trkpt lat="48.19928" lon="3.25677">
        <ele>166.6</ele>
        <time>2020-02-08T11:07:05Z</time>
      </trkpt>
      <trkpt lat="48.1993" lon="3.25675">
        <ele>166.3</ele>
        <time>2020-02-08T11:07:02Z</time>
      </trkpt>
      <trkpt lat="48.19934" lon="3.25668">
        <ele>165.8</ele>
        <time>2020-02-08T11:06:55Z</time>
      </trkpt>
      <trkpt lat="48.19942" lon="3.25665">
        <ele>165.1</ele>
        <time>2020-02-08T11:06:49Z</time>
      </trkpt>
      <trkpt lat="48.19943" lon="3.25661">
        <ele>164.9</ele>
        <time>2020-02-08T11:06:44Z</time>
      </trkpt>
      <trkpt lat="48.19943" lon="3.25648">
        <ele>164.4</ele>
        <time>2020-02-08T11:06:35Z</time>
      </trkpt>
      <trkpt lat="48.19942" lon="3.2564">
        <ele>164.2</ele>
        <time>2020-02-08T11:06:31Z</time>
      </trkpt>
      <trkpt lat="48.19943" lon="3.25623">
        <ele>163</ele>
        <time>2020-02-08T11:06:22Z</time>
      </trkpt>
      <trkpt lat="48.19945" lon="3.25617">
        <ele>162.4</ele>
        <time>2020-02-08T11:06:18Z</time>
      </trkpt>
      <trkpt lat="48.19946" lon="3.25611">
        <ele>161.9</ele>
        <time>2020-02-08T11:06:15Z</time>
      </trkpt>
      <trkpt lat="48.19942" lon="3.25602">
        <ele>161.9</ele>
        <time>2020-02-08T11:06:10Z</time>
      </trkpt>
      <trkpt lat="48.19942" lon="3.25594">
        <ele>161.6</ele>
        <time>2020-02-08T11:06:06Z</time>
      </trkpt>
      <trkpt lat="48.19944" lon="3.25585">
        <ele>161.1</ele>
        <time>2020-02-08T11:06:01Z</time>
      </trkpt>
      <trkpt lat="48.19945" lon="3.25581">
        <ele>160.9</ele>
        <time>2020-02-08T11:05:59Z</time>
      </trkpt>
      <trkpt lat="48.19949" lon="3.25571">
        <ele>160.2</ele>
        <time>2020-02-08T11:05:53Z</time>
      </trkpt>
      <trkpt lat="48.19951" lon="3.25567">
        <ele>159.8</ele>
        <time>2020-02-08T11:05:50Z</time>
      </trkpt>
      <trkpt lat="48.19952" lon="3.25563">
        <ele>159.5</ele>
        <time>2020-02-08T11:05:43Z</time>
      </trkpt>
      <trkpt lat="48.19953" lon="3.25554">
        <ele>159</ele>
        <time>2020-02-08T11:05:37Z</time>
      </trkpt>
      <trkpt lat="48.19954" lon="3.25545">
        <ele>158.2</ele>
        <time>2020-02-08T11:05:30Z</time>
      </trkpt>
      <trkpt lat="48.19954" lon="3.25541">
        <ele>157.9</ele>
        <time>2020-02-08T11:05:27Z</time>
      </trkpt>
      <trkpt lat="48.19953" lon="3.2553">
        <ele>157.2</ele>
        <time>2020-02-08T11:05:19Z</time>
      </trkpt>
      <trkpt lat="48.19954" lon="3.25525">
        <ele>156.8</ele>
        <time>2020-02-08T11:05:15Z</time>
      </trkpt>
      <trkpt lat="48.19957" lon="3.2552">
        <ele>156.2</ele>
        <time>2020-02-08T11:05:08Z</time>
      </trkpt>
      <trkpt lat="48.19961" lon="3.25516">
        <ele>155.5</ele>
        <time>2020-02-08T11:05:02Z</time>
      </trkpt>
      <trkpt lat="48.19964" lon="3.25515">
        <ele>155.1</ele>
        <time>2020-02-08T11:04:55Z</time>
      </trkpt>
      <trkpt lat="48.19968" lon="3.25512">
        <ele>154.4</ele>
        <time>2020-02-08T11:04:46Z</time>
      </trkpt>
      <trkpt lat="48.19968" lon="3.25507">
        <ele>154.1</ele>
        <time>2020-02-08T11:04:37Z</time>
      </trkpt>
      <trkpt lat="48.19969" lon="3.25493">
        <ele>152.9</ele>
        <time>2020-02-08T11:04:30Z</time>
      </trkpt>
      <trkpt lat="48.19966" lon="3.25483">
        <ele>152.5</ele>
        <time>2020-02-08T11:04:25Z</time>
      </trkpt>
      <trkpt lat="48.1996" lon="3.25468">
        <ele>152.1</ele>
        <time>2020-02-08T11:04:19Z</time>
      </trkpt>
      <trkpt lat="48.19948" lon="3.25449">
        <ele>152.7</ele>
        <time>2020-02-08T11:04:12Z</time>
      </trkpt>
      <trkpt lat="48.19948" lon="3.25433">
        <ele>151.7</ele>
        <time>2020-02-08T11:04:06Z</time>
      </trkpt>
      <trkpt lat="48.19933" lon="3.25408">
        <ele>151.4</ele>
        <time>2020-02-08T11:03:58Z</time>
      </trkpt>
      <trkpt lat="48.19929" lon="3.254">
        <ele>151.2</ele>
        <time>2020-02-08T11:03:55Z</time>
      </trkpt>
      <trkpt lat="48.19926" lon="3.25393">
        <ele>151</ele>
        <time>2020-02-08T11:03:51Z</time>
      </trkpt>
      <trkpt lat="48.19921" lon="3.25382">
        <ele>150.9</ele>
        <time>2020-02-08T11:03:43Z</time>
      </trkpt>
      <trkpt lat="48.19915" lon="3.25374">
        <ele>151.2</ele>
        <time>2020-02-08T11:03:36Z</time>
      </trkpt>
      <trkpt lat="48.1991" lon="3.25364">
        <ele>151.2</ele>
        <time>2020-02-08T11:03:28Z</time>
      </trkpt>
      <trkpt lat="48.19908" lon="3.25362">
        <ele>151.3</ele>
        <time>2020-02-08T11:03:23Z</time>
      </trkpt>
      <trkpt lat="48.19908" lon="3.25352">
        <ele>150.5</ele>
        <time>2020-02-08T11:03:14Z</time>
      </trkpt>
      <trkpt lat="48.19909" lon="3.25344">
        <ele>149.7</ele>
        <time>2020-02-08T11:03:06Z</time>
      </trkpt>
      <trkpt lat="48.19909" lon="3.25335">
        <ele>149</ele>
        <time>2020-02-08T11:02:57Z</time>
      </trkpt>
      <trkpt lat="48.19902" lon="3.25334">
        <ele>149.6</ele>
        <time>2020-02-08T11:02:52Z</time>
      </trkpt>
      <trkpt lat="48.19901" lon="3.25333">
        <ele>149.7</ele>
        <time>2020-02-08T11:02:51Z</time>
      </trkpt>
      <trkpt lat="48.19898" lon="3.25327">
        <ele>149.3</ele>
        <time>2020-02-08T11:02:44Z</time>
      </trkpt>
      <trkpt lat="48.19899" lon="3.25325">
        <ele>149</ele>
        <time>2020-02-08T11:02:36Z</time>
      </trkpt>
      <trkpt lat="48.19898" lon="3.25323">
        <ele>148.9</ele>
        <time>2020-02-08T11:02:30Z</time>
      </trkpt>
      <trkpt lat="48.19896" lon="3.25313">
        <ele>148</ele>
        <time>2020-02-08T11:02:23Z</time>
      </trkpt>
      <trkpt lat="48.19896" lon="3.2531">
        <ele>147.7</ele>
        <time>2020-02-08T11:02:16Z</time>
      </trkpt>
      <trkpt lat="48.19894" lon="3.25302">
        <ele>147.1</ele>
        <time>2020-02-08T11:02:12Z</time>
      </trkpt>
      <trkpt lat="48.19893" lon="3.253">
        <ele>147</ele>
        <time>2020-02-08T11:02:09Z</time>
      </trkpt>
      <trkpt lat="48.19898" lon="3.25296">
        <ele>146</ele>
        <time>2020-02-08T11:02:02Z</time>
      </trkpt>
      <trkpt lat="48.19903" lon="3.2529">
        <ele>144.8</ele>
        <time>2020-02-08T11:01:54Z</time>
      </trkpt>
      <trkpt lat="48.19908" lon="3.25283">
        <ele>143.5</ele>
        <time>2020-02-08T11:01:46Z</time>
      </trkpt>
      <trkpt lat="48.19913" lon="3.25279">
        <ele>142.5</ele>
        <time>2020-02-08T11:01:39Z</time>
      </trkpt>
      <trkpt lat="48.19919" lon="3.25275">
        <ele>141.4</ele>
        <time>2020-02-08T11:01:30Z</time>
      </trkpt>
      <trkpt lat="48.19925" lon="3.25273">
        <ele>140.3</ele>
        <time>2020-02-08T11:01:22Z</time>
      </trkpt>
      <trkpt lat="48.19925" lon="3.25273">
        <ele>140.3</ele>
        <time>2020-02-08T11:01:20Z</time>
      </trkpt>
      <trkpt lat="48.19925" lon="3.25273">
        <ele>140.3</ele>
        <time>2020-02-08T11:01:19Z</time>
      </trkpt>
      <trkpt lat="48.19933" lon="3.25276">
        <ele>139.5</ele>
        <time>2020-02-08T11:01:11Z</time>
      </trkpt>
      <trkpt lat="48.19936" lon="3.25278">
        <ele>139.2</ele>
        <time>2020-02-08T11:01:09Z</time>
      </trkpt>
      <trkpt lat="48.19938" lon="3.25281">
        <ele>139.2</ele>
        <time>2020-02-08T11:01:07Z</time>
      </trkpt>
      <trkpt lat="48.19943" lon="3.25288">
        <ele>139</ele>
        <time>2020-02-08T11:01:00Z</time>
      </trkpt>
      <trkpt lat="48.19948" lon="3.25295">
        <ele>138.9</ele>
        <time>2020-02-08T11:00:53Z</time>
      </trkpt>
      <trkpt lat="48.1995" lon="3.25297">
        <ele>138.8</ele>
        <time>2020-02-08T11:00:48Z</time>
      </trkpt>
      <trkpt lat="48.19951" lon="3.25295">
        <ele>138.5</ele>
        <time>2020-02-08T11:00:46Z</time>
      </trkpt>
      <trkpt lat="48.19953" lon="3.25278">
        <ele>137.1</ele>
        <time>2020-02-08T11:00:38Z</time>
      </trkpt>
      <trkpt lat="48.19952" lon="3.25274">
        <ele>136.9</ele>
        <time>2020-02-08T11:00:36Z</time>
      </trkpt>
      <trkpt lat="48.19949" lon="3.25267">
        <ele>136.7</ele>
        <time>2020-02-08T11:00:33Z</time>
      </trkpt>
      <trkpt lat="48.19947" lon="3.25262">
        <ele>136.5</ele>
        <time>2020-02-08T11:00:31Z</time>
      </trkpt>
      <trkpt lat="48.19939" lon="3.25252">
        <ele>136.7</ele>
        <time>2020-02-08T11:00:26Z</time>
      </trkpt>
      <trkpt lat="48.19931" lon="3.25242">
        <ele>136.9</ele>
        <time>2020-02-08T11:00:19Z</time>
      </trkpt>
      <trkpt lat="48.19928" lon="3.2524">
        <ele>137.1</ele>
        <time>2020-02-08T11:00:16Z</time>
      </trkpt>
      <trkpt lat="48.19927" lon="3.25236">
        <ele>136.9</ele>
        <time>2020-02-08T11:00:14Z</time>
      </trkpt>
      <trkpt lat="48.19923" lon="3.25232">
        <ele>137</ele>
        <time>2020-02-08T11:00:10Z</time>
      </trkpt>
      <trkpt lat="48.19923" lon="3.25229">
        <ele>136.8</ele>
        <time>2020-02-08T11:00:06Z</time>
      </trkpt>
      <trkpt lat="48.19926" lon="3.25223">
        <ele>136</ele>
        <time>2020-02-08T11:00:00Z</time>
      </trkpt>
      <trkpt lat="48.19936" lon="3.25223">
        <ele>135</ele>
        <time>2020-02-08T10:59:53Z</time>
      </trkpt>
      <trkpt lat="48.19939" lon="3.25226">
        <ele>134.9</ele>
        <time>2020-02-08T10:59:51Z</time>
      </trkpt>
      <trkpt lat="48.19942" lon="3.25233">
        <ele>135</ele>
        <time>2020-02-08T10:59:47Z</time>
      </trkpt>
      <trkpt lat="48.19945" lon="3.25239">
        <ele>135.1</ele>
        <time>2020-02-08T10:59:42Z</time>
      </trkpt>
      <trkpt lat="48.19948" lon="3.25238">
        <ele>134.6</ele>
        <time>2020-02-08T10:59:39Z</time>
      </trkpt>
      <trkpt lat="48.19949" lon="3.25231">
        <ele>134</ele>
        <time>2020-02-08T10:59:33Z</time>
      </trkpt>
      <trkpt lat="48.19947" lon="3.25225">
        <ele>133.8</ele>
        <time>2020-02-08T10:59:26Z</time>
      </trkpt>
      <trkpt lat="48.19945" lon="3.25222">
        <ele>133.9</ele>
        <time>2020-02-08T10:59:19Z</time>
      </trkpt>
      <trkpt lat="48.19943" lon="3.25219">
        <ele>133.8</ele>
        <time>2020-02-08T10:59:12Z</time>
      </trkpt>
      <trkpt lat="48.19943" lon="3.25213">
        <ele>133.2</ele>
        <time>2020-02-08T10:59:03Z</time>
      </trkpt>
      <trkpt lat="48.19948" lon="3.2521">
        <ele>132.2</ele>
        <time>2020-02-08T10:58:56Z</time>
      </trkpt>
      <trkpt lat="48.19951" lon="3.25208">
        <ele>131.6</ele>
        <time>2020-02-08T10:58:53Z</time>
      </trkpt>
      <trkpt lat="48.19957" lon="3.25201">
        <ele>130.2</ele>
        <time>2020-02-08T10:58:46Z</time>
      </trkpt>
      <trkpt lat="48.1996" lon="3.25201">
        <ele>129.9</ele>
        <time>2020-02-08T10:58:44Z</time>
      </trkpt>
      <trkpt lat="48.19974" lon="3.25216">
        <ele>129.4</ele>
        <time>2020-02-08T10:58:37Z</time>
      </trkpt>
      <trkpt lat="48.19974" lon="3.25224">
        <ele>129.9</ele>
        <time>2020-02-08T10:58:35Z</time>
      </trkpt>
      <trkpt lat="48.19977" lon="3.25236">
        <ele>130.5</ele>
        <time>2020-02-08T10:58:30Z</time>
      </trkpt>
      <trkpt lat="48.19983" lon="3.25246">
        <ele>130.5</ele>
        <time>2020-02-08T10:58:24Z</time>
      </trkpt>
      <trkpt lat="48.19986" lon="3.2525">
        <ele>130.5</ele>
        <time>2020-02-08T10:58:22Z</time>
      </trkpt>
      <trkpt lat="48.19991" lon="3.25262">
        <ele>131</ele>
        <time>2020-02-08T10:58:15Z</time>
      </trkpt>
      <trkpt lat="48.19991" lon="3.25277">
        <ele>132.2</ele>
        <time>2020-02-08T10:58:11Z</time>
      </trkpt>
      <trkpt lat="48.19993" lon="3.25291">
        <ele>133</ele>
        <time>2020-02-08T10:58:05Z</time>
      </trkpt>
      <trkpt lat="48.19997" lon="3.25298">
        <ele>132.9</ele>
        <time>2020-02-08T10:57:59Z</time>
      </trkpt>
      <trkpt lat="48.20001" lon="3.25305">
        <ele>132.8</ele>
        <time>2020-02-08T10:57:51Z</time>
      </trkpt>
      <trkpt lat="48.20005" lon="3.253">
        <ele>131.9</ele>
        <time>2020-02-08T10:57:47Z</time>
      </trkpt>
      <trkpt lat="48.20008" lon="3.25284">
        <ele>130.3</ele>
        <time>2020-02-08T10:57:38Z</time>
      </trkpt>
      <trkpt lat="48.20008" lon="3.25279">
        <ele>129.9</ele>
        <time>2020-02-08T10:57:35Z</time>
      </trkpt>
      <trkpt lat="48.20009" lon="3.25268">
        <ele>129</ele>
        <time>2020-02-08T10:57:28Z</time>
      </trkpt>
      <trkpt lat="48.20008" lon="3.25254">
        <ele>128.1</ele>
        <time>2020-02-08T10:57:19Z</time>
      </trkpt>
      <trkpt lat="48.20006" lon="3.2525">
        <ele>128.1</ele>
        <time>2020-02-08T10:57:13Z</time>
      </trkpt>
      <trkpt lat="48.20007" lon="3.25247">
        <ele>127.8</ele>
        <time>2020-02-08T10:57:10Z</time>
      </trkpt>
      <trkpt lat="48.20014" lon="3.25247">
        <ele>126.8</ele>
        <time>2020-02-08T10:57:03Z</time>
      </trkpt>
      <trkpt lat="48.20016" lon="3.25246">
        <ele>126.4</ele>
        <time>2020-02-08T10:57:01Z</time>
      </trkpt>
      <trkpt lat="48.20022" lon="3.25246">
        <ele>125.5</ele>
        <time>2020-02-08T10:56:54Z</time>
      </trkpt>
      <trkpt lat="48.20024" lon="3.25246">
        <ele>125.3</ele>
        <time>2020-02-08T10:56:53Z</time>
      </trkpt>
      <trkpt lat="48.20032" lon="3.25243">
        <ele>123.8</ele>
        <time>2020-02-08T10:56:46Z</time>
      </trkpt>
      <trkpt lat="48.20034" lon="3.25237">
        <ele>123</ele>
        <time>2020-02-08T10:56:42Z</time>
      </trkpt>
      <trkpt lat="48.20032" lon="3.2523">
        <ele>122.9</ele>
        <time>2020-02-08T10:56:37Z</time>
      </trkpt>
      <trkpt lat="48.2003" lon="3.25216">
        <ele>122.2</ele>
        <time>2020-02-08T10:56:29Z</time>
      </trkpt>
      <trkpt lat="48.20028" lon="3.25208">
        <ele>121.9</ele>
        <time>2020-02-08T10:56:24Z</time>
      </trkpt>
      <trkpt lat="48.20025" lon="3.25198">
        <ele>121.7</ele>
        <time>2020-02-08T10:56:19Z</time>
      </trkpt>
      <trkpt lat="48.20023" lon="3.25186">
        <ele>121</ele>
        <time>2020-02-08T10:56:13Z</time>
      </trkpt>
      <trkpt lat="48.20017" lon="3.25166">
        <ele>120.1</ele>
        <time>2020-02-08T10:56:03Z</time>
      </trkpt>
      <trkpt lat="48.20012" lon="3.25154">
        <ele>119.8</ele>
        <time>2020-02-08T10:55:57Z</time>
      </trkpt>
      <trkpt lat="48.20008" lon="3.25149">
        <ele>119.9</ele>
        <time>2020-02-08T10:55:52Z</time>
      </trkpt>
      <trkpt lat="48.20006" lon="3.25144">
        <ele>119.7</ele>
        <time>2020-02-08T10:55:47Z</time>
      </trkpt>
      <trkpt lat="48.20005" lon="3.25139">
        <ele>119.5</ele>
        <time>2020-02-08T10:55:44Z</time>
      </trkpt>
      <trkpt lat="48.20006" lon="3.25137">
        <ele>119.2</ele>
        <time>2020-02-08T10:55:43Z</time>
      </trkpt>
      <trkpt lat="48.20006" lon="3.25128">
        <ele>118.6</ele>
        <time>2020-02-08T10:55:37Z</time>
      </trkpt>
      <trkpt lat="48.20004" lon="3.25126">
        <ele>118.6</ele>
        <time>2020-02-08T10:55:24Z</time>
      </trkpt>
      <trkpt lat="48.20003" lon="3.25121">
        <ele>118.4</ele>
        <time>2020-02-08T10:55:16Z</time>
      </trkpt>
      <trkpt lat="48.20002" lon="3.25112">
        <ele>117.8</ele>
        <time>2020-02-08T10:55:09Z</time>
      </trkpt>
      <trkpt lat="48.19864" lon="3.24568">
        <ele>102.8</ele>
      </trkpt>
      <trkpt lat="48.19838" lon="3.24517">
        <ele>103.8</ele>
      </trkpt>
      <trkpt lat="48.19799" lon="3.24509">
        <ele>105.2</ele>
      </trkpt>
      <trkpt lat="48.19642" lon="3.24695">
        <ele>137.7</ele>
      </trkpt>
      <trkpt lat="48.19517" lon="3.24813">
        <ele>156</ele>
      </trkpt>
      <trkpt lat="48.19343" lon="3.2453">
        <ele>154.7</ele>
      </trkpt>
      <trkpt lat="48.19327" lon="3.24556">
        <ele>156.2</ele>
      </trkpt>
      <trkpt lat="48.19273" lon="3.2456">
        <ele>158.3</ele>
      </trkpt>
      <trkpt lat="48.1925" lon="3.24631">
        <ele>162.7</ele>
        <time>2020-02-08T10:55:01Z</time>
      </trkpt>
    </trkseg>
  </trk>
</gpx>